• Join FlightAware (Why Join?)
  • Login
  • US Flag 
01:35AM EDT


 

Airport Tracker/Info


-or-


 

Live Flight TrackerFlight Track Log ✈ AWE3827 ✈ 09-Apr-2013 ✈ KCLT - KBNA

Flight Track Log - Related Links

Times and Time Zones

All times are in EDT time to prevent confusion due to time zone crossing. See the AWE3827 flight status page for this flight to view local times or setup timezone preferences in your user account.

Time Position Orientation Groundspeed Altitude Reporting Facility
EDT Latitude Longitude Course Direction KTS MPH feet Rate Location/Type
08:22AM 35.1892 -80.9536 270° West 159 183 1,600  Level Atlanta Center
08:22AM 35.1653 -80.9483 170° South 174 200 2,500 1,440 Climbing FAA TRACON SMA TRACON (SMA)
08:23AM 35.1486 -80.9494 183° South 201 231 2,800 1,320 Climbing FAA TRACON SMA TRACON (SMA)
08:23AM 35.1319 -80.9564 199° South 205 236 3,400 2,220 Climbing FAA TRACON SMA TRACON (SMA)
08:23AM 35.1100 -80.9636 195° South 218 251 4,300 1,620 Climbing FAA TRACON SMA TRACON (SMA)
08:24AM 35.2621 -81.1891 282° West  Level FlightAware Approximate
08:24AM 35.0925 -80.9775 213° Southwest 261 300 4,500  Level FAA TRACON SMA TRACON (SMA)
08:24AM 35.0850 -81.0028 250° West 256 295 5,300 2,700 Climbing FAA TRACON SMA TRACON (SMA)
08:24AM 35.0886 -81.0372 277° West 259 298 6,300 2,520 Climbing FAA TRACON SMA TRACON (SMA)
08:25AM 35.2285 -81.3058 242° Southwest  Level FlightAware Approximate
08:25AM 35.0919 -81.0656 278° West 273 314 7,000  Level FAA TRACON SMA TRACON (SMA)
08:25AM 35.0933 -81.0944 273° West 276 318 7,800 1,500 Climbing FAA TRACON SMA TRACON (SMA)
08:25AM 35.1014 -81.1308 285° West 301 346 8,000 300 Climbing FAA TRACON SMA TRACON (SMA)
08:26AM 35.1750 -81.4167 239° Southwest  Level FlightAware Approximate
08:26AM 35.1094 -81.1544 293° West 279 321 8,000  Level FAA TRACON SMA TRACON (SMA)
08:26AM 35.1200 -81.1847 293° West 280 322 8,400 2,040 Climbing FAA TRACON SMA TRACON (SMA)
08:26AM 35.1297 -81.2194 289° West 275 316 9,400 2,340 Climbing FAA TRACON SMA TRACON (SMA)
08:27AM 35.1334 -81.5309 270° West  Level FlightAware Approximate
08:27AM 35.1333 -81.2478 279° West 272 313 10,000  Level FAA TRACON SMA TRACON (SMA)
08:27AM 35.1350 -81.2769 274° West 275 316 10,700 1,500 Climbing FAA TRACON SMA TRACON (SMA)
08:27AM 35.1358 -81.3103 272° West 289 333 11,000 1,020 Climbing FAA TRACON SMA TRACON (SMA)
08:28AM 35.1397 -81.3469 277° West 303 349 11,400 1,440 Climbing FAA TRACON SMA TRACON (SMA)
08:28AM 35.1417 -81.3797 274° West 311 358 12,000 1,620 Climbing FAA TRACON SMA TRACON (SMA)
08:28AM 35.1439 -81.4128 275° West 315 362 12,500 1,800 Climbing FAA TRACON SMA TRACON (SMA)
08:29AM 35.1461 -81.4542 274° West 318 366 13,200 1,320 Climbing FAA TRACON SMA TRACON (SMA)
08:29AM 35.1478 -81.4881 273° West 323 372 13,400 1,020 Climbing FAA TRACON SMA TRACON (SMA)
08:29AM 35.1467 -81.5231 268° West 334 384 13,900 1,560 Climbing FAA TRACON SMA TRACON (SMA)
08:30AM 35.1436 -81.5667 265° West 333 383 14,500 1,560 Climbing FAA TRACON SMA TRACON (SMA)
08:30AM 35.1411 -81.6014 265° West 335 386 15,000 1,320 Climbing FAA TRACON SMA TRACON (SMA)
08:30AM 35.1389 -81.6364 266° West 335 386 15,400 1,260 Climbing FAA TRACON SMA TRACON (SMA)
08:31AM 35.1358 -81.6803 265° West 337 388 15,900 1,320 Climbing FAA TRACON SMA TRACON (SMA)
08:31AM 35.1331 -81.7161 265° West 340 391 16,300 1,260 Climbing FAA TRACON SMA TRACON (SMA)
08:31AM 35.1306 -81.7522 265° West 343 395 16,700 1,200 Climbing FAA TRACON SMA TRACON (SMA)
08:32AM 35.1261 -81.7972 263° West 346 398 17,100 1,200 Climbing FAA TRACON SMA TRACON (SMA)
08:32AM 35.1233 -81.8339 265° West 349 402 17,500 1,020 Climbing FAA TRACON SMA TRACON (SMA)
08:32AM 35.1197 -81.8708 263° West 352 405 17,800 1,020 Climbing FAA TRACON SMA TRACON (SMA)
08:33AM 35.1164 -81.9175 265° West 356 410 18,200 1,140 Climbing FAA TRACON SMA TRACON (SMA)
08:33AM 35.1142 -81.9544 266° West 357 411 18,600 900 Climbing FAA TRACON SMA TRACON (SMA)
08:33AM 35.1108 -81.9917 264° West 357 411 18,800 1,020 Climbing FAA TRACON SMA TRACON (SMA)
08:34AM 35.1061 -82.0383 263° West 360 414 19,300 1,140 Climbing FAA TRACON SMA TRACON (SMA)
08:34AM 35.1036 -82.0767 265° West 363 418 19,600 420 Climbing FAA TRACON SMA TRACON (SMA)
08:34AM 35.1036 -82.0767 68° East 363 418 19,600 1,320 Level FAA TRACON SMA TRACON (SMA)
08:35AM 35.0936 -82.2211 265° West 374 430 21,200 1,380 Climbing Atlanta Center
08:36AM 35.1139 -82.3300 283° West 362 417 22,200 960 Climbing Atlanta Center
08:37AM 35.1717 -82.4331 304° West 348 400 23,200 1,200 Climbing Atlanta Center
08:38AM 35.2314 -82.5514 302° West 359 413 24,600 1,200 Climbing Atlanta Center
08:39AM 35.2764 -82.6394 302° West 361 415 25,600 660 Climbing Atlanta Center
08:40AM 35.3317 -82.7431 303° West 353 406 26,000 180 Climbing Atlanta Center
08:41AM 35.3869 -82.8517 302° West 366 421 26,000  Level Atlanta Center
08:42AM 35.4486 -82.9808 300° West 388 447 26,000  Level Atlanta Center
08:43AM 35.5061 -83.0975 301° West 400 460 26,000  Level Atlanta Center
08:44AM 35.5653 -83.2142 302° West 400 460 26,000  Level Atlanta Center
08:45AM 35.6097 -83.3211 297° West 400 460 26,000  Level Atlanta Center
08:46AM 35.6167 -83.4539 274° West 389 448 26,000  Level Atlanta Center
08:47AM 35.6236 -83.5892 274° West 394 453 26,000  Level Atlanta Center
08:48AM 35.6281 -83.7244 272° West 399 459 26,000 -600 Level Atlanta Center
08:49AM 35.6367 -83.8625 274° West 404 465 24,900 -1,020 Descending Atlanta Center
08:50AM 35.6411 -84.0056 272° West 411 473 24,000 -480 Descending Atlanta Center
08:51AM 35.6472 -84.1564 273° West 411 473 24,000  Level Atlanta Center
08:52AM 35.6514 -84.2892 272° West 400 460 24,000  Level Atlanta Center
08:53AM 35.6572 -84.4222 273° West 400 460 24,000 -240 Level Atlanta Center
08:54AM 35.6608 -84.5575 272° West 400 460 23,600 -780 Descending Atlanta Center
08:55AM 35.6664 -84.6931 273° West 400 460 22,500 -1,080 Descending Atlanta Center
08:56AM 35.6700 -84.8261 272° West 400 460 21,500 -1,020 Descending Atlanta Center
08:57AM 35.6772 -84.9592 274° West 400 460 20,500 -480 Descending Atlanta Center
08:59AM 35.6758 -85.2433 270° West 374 430 20,000 -180 Descending Memphis Center
09:00AM 35.6536 -85.3672 258° West 374 430 20,000  Level Memphis Center
09:01AM 35.6294 -85.4914 257° West 374 430 20,000  Level Memphis Center
09:02AM 35.6069 -85.6103 257° West 374 430 20,000  Level Memphis Center
09:03AM 35.5864 -85.7289 258° West 369 425 20,000 -540 Level Memphis Center
09:04AM 35.5636 -85.8500 257° West 364 419 19,000 -1,320 Descending Memphis Center
09:05AM 35.5908 -85.9658 286° West 344 396 17,400 -1,800 Descending Memphis Center
09:06AM 35.6650 -86.0564 315° West 344 396 15,400 -1,800 Descending Memphis Center
09:07AM 35.7261 -86.1403 312° West 359 413 13,800 -1,680 Descending Memphis Center
09:08AM 35.7894 -86.2267 312° West 354 407 12,100 -1,620 Descending Memphis Center
09:09AM 35.8483 -86.3006 315° West 323 372 10,600 -1,440 Descending Memphis Center
09:10AM 35.9028 -86.3722 313° West 298 343 9,300 -1,320 Descending Memphis Center
09:11AM 35.9550 -86.4439 312° West 281 323 8,000 -1,260 Descending Memphis Center
09:12AM 36.0028 -86.5058 314° West 263 303 6,800 -1,200 Descending Memphis Center
09:13AM 36.0506 -86.5678 314° West 256 295 5,700 -900 Descending Memphis Center
09:14AM 36.1064 -86.6192 323° Northwest 243 280 5,000 -540 Descending Memphis Center
09:15AM 36.1608 -86.5625 40° Northeast 195 224 4,700 -540 Descending Memphis Center
09:16AM 36.2247 -86.5339 20° North 226 260 4,000 -720 Descending Memphis Center